createdAt,value
2018-06-14T00:00:19.166Z,8.90
2018-06-14T00:01:24.866Z,8.80
2018-06-14T00:02:30.406Z,8.27
2018-06-14T00:03:35.821Z,8.37
2018-06-14T00:04:41.270Z,8.67
2018-06-14T00:05:46.844Z,8.03
2018-06-14T00:06:52.411Z,8.73
2018-06-14T00:07:57.504Z,7.63
2018-06-14T00:09:02.892Z,8.97
2018-06-14T00:10:08.646Z,8.30
2018-06-14T00:11:14.077Z,9.53
2018-06-14T00:12:19.780Z,9.20
2018-06-14T00:13:25.189Z,8.97
2018-06-14T00:14:30.671Z,9.23
2018-06-14T00:15:36.151Z,8.90
2018-06-14T00:16:41.583Z,9.27
2018-06-14T00:17:47.071Z,10.10
2018-06-14T00:18:52.528Z,10.10
2018-06-14T00:19:57.942Z,9.10
2018-06-14T00:21:03.702Z,9.50
2018-06-14T00:22:09.105Z,10.00
2018-06-14T00:23:14.685Z,9.30
2018-06-14T00:24:20.469Z,9.50
2018-06-14T00:25:25.881Z,8.87
2018-06-14T00:26:31.343Z,9.20
2018-06-14T00:27:36.753Z,9.10
2018-06-14T00:28:42.200Z,8.67
2018-06-14T00:29:47.601Z,8.83
2018-06-14T00:30:52.997Z,8.93
2018-06-14T00:31:58.517Z,7.67
2018-06-14T00:33:03.930Z,9.90
2018-06-14T00:34:09.390Z,8.77
2018-06-14T00:35:14.815Z,10.10
2018-06-14T00:36:20.262Z,9.50
2018-06-14T00:37:25.661Z,9.40
2018-06-14T00:38:31.449Z,10.20
2018-06-14T00:39:37.280Z,8.70
2018-06-14T00:40:42.840Z,9.10
2018-06-14T00:41:48.268Z,8.40
2018-06-14T00:42:53.755Z,8.37
2018-06-14T00:43:58.839Z,9.00
2018-06-14T00:45:04.237Z,9.73
2018-06-14T00:46:09.713Z,9.60
2018-06-14T00:47:15.410Z,9.30
2018-06-14T00:48:20.855Z,9.13
2018-06-14T00:49:26.489Z,9.83
2018-06-14T00:50:31.935Z,8.97
2018-06-14T00:51:37.296Z,9.30
2018-06-14T00:52:42.685Z,9.50
2018-06-14T00:53:48.116Z,9.40
2018-06-14T00:54:53.667Z,8.67
2018-06-14T00:55:59.109Z,10.03
2018-06-14T00:57:27.626Z,10.00
2018-06-14T00:58:33.079Z,9.67
2018-06-14T00:59:38.490Z,8.40
2018-06-14T01:00:43.926Z,9.60
2018-06-14T01:01:49.713Z,8.57
2018-06-14T01:02:55.150Z,10.40
2018-06-14T01:04:00.932Z,10.03
2018-06-14T01:05:06.574Z,9.20
2018-06-14T01:06:12.125Z,9.47
2018-06-14T01:07:17.562Z,9.57
2018-06-14T01:08:22.967Z,11.00
2018-06-14T01:09:28.419Z,8.00
2018-06-14T01:10:34.308Z,9.10
2018-06-14T01:11:40.272Z,10.43
2018-06-14T01:12:45.893Z,9.17
2018-06-14T01:13:51.317Z,9.27
2018-06-14T01:14:56.878Z,9.00
2018-06-14T01:16:02.509Z,9.10
2018-06-14T01:17:08.608Z,9.10
2018-06-14T01:18:14.049Z,9.13
2018-06-14T01:19:19.462Z,8.87
2018-06-14T01:20:24.998Z,9.00
2018-06-14T01:21:31.142Z,8.57
2018-06-14T01:22:36.612Z,8.53
2018-06-14T01:23:42.014Z,8.67
2018-06-14T01:24:47.484Z,9.00
2018-06-14T01:25:52.938Z,8.70
2018-06-14T01:26:58.645Z,8.57
2018-06-14T01:28:04.160Z,9.43
2018-06-14T01:29:09.556Z,8.67
2018-06-14T01:30:14.993Z,9.23
2018-06-14T01:31:20.862Z,9.30
2018-06-14T01:32:26.709Z,9.47
2018-06-14T01:33:32.108Z,9.40
2018-06-14T01:34:37.580Z,9.13
2018-06-14T01:35:43.055Z,9.43
2018-06-14T01:36:48.582Z,9.50
2018-06-14T01:38:10.694Z,8.90
2018-06-14T01:39:16.103Z,8.53
2018-06-14T01:40:21.561Z,9.40
2018-06-14T01:41:26.989Z,9.10
2018-06-14T01:42:32.402Z,9.20
2018-06-14T01:43:38.170Z,9.20
2018-06-14T01:44:43.630Z,8.90
2018-06-14T01:45:49.039Z,9.87
2018-06-14T01:46:54.441Z,9.03
2018-06-14T01:47:59.963Z,9.40
2018-06-14T01:49:05.730Z,9.37
2018-06-14T01:50:11.191Z,9.13
2018-06-14T01:51:16.617Z,9.53
2018-06-14T01:52:22.001Z,9.23
2018-06-14T01:53:27.422Z,9.63
2018-06-14T01:54:33.198Z,8.83
2018-06-14T01:55:38.739Z,9.90
2018-06-14T01:56:44.256Z,10.07
2018-06-14T01:57:49.716Z,10.23
2018-06-14T01:58:55.107Z,10.37
2018-06-14T02:00:00.989Z,9.57
2018-06-14T02:01:06.446Z,9.50
2018-06-14T02:02:12.159Z,8.73
2018-06-14T02:03:17.581Z,9.80
2018-06-14T02:04:23.026Z,10.67
2018-06-14T02:05:28.885Z,9.67
2018-06-14T02:06:34.370Z,10.50
2018-06-14T02:07:39.822Z,10.30
2018-06-14T02:08:45.241Z,10.70
2018-06-14T02:09:50.653Z,10.17
2018-06-14T02:10:56.314Z,10.77
2018-06-14T02:12:01.787Z,10.27
2018-06-14T02:13:07.249Z,9.53
2018-06-14T02:14:12.781Z,9.33
2018-06-14T02:15:18.221Z,9.97
2018-06-14T02:16:23.833Z,10.70
2018-06-14T02:17:29.297Z,9.93
2018-06-14T02:18:34.731Z,10.00
2018-06-14T02:19:40.201Z,9.00
2018-06-14T02:20:45.629Z,10.77
2018-06-14T02:21:51.621Z,9.83
2018-06-14T02:22:57.065Z,11.03
2018-06-14T02:24:02.466Z,9.13
2018-06-14T02:25:07.892Z,9.50
2018-06-14T02:26:13.341Z,10.60
2018-06-14T02:27:18.774Z,10.53
2018-06-14T02:28:24.196Z,10.10
2018-06-14T02:29:29.645Z,9.23
2018-06-14T02:30:35.121Z,9.57
2018-06-14T02:31:40.590Z,10.53
2018-06-14T02:32:46.333Z,9.63
2018-06-14T02:33:51.766Z,9.83
2018-06-14T02:34:57.170Z,10.47
2018-06-14T02:36:02.658Z,9.60
2018-06-14T02:37:08.142Z,9.63
2018-06-14T02:38:13.631Z,10.30
2018-06-14T02:39:19.111Z,10.00
2018-06-14T02:40:24.531Z,10.23
2018-06-14T02:41:29.965Z,9.40
2018-06-14T02:42:35.576Z,9.80
2018-06-14T02:43:41.350Z,9.97
2018-06-14T02:44:46.862Z,10.03
2018-06-14T02:45:52.263Z,9.93
2018-06-14T02:46:57.673Z,10.07
2018-06-14T02:48:03.114Z,9.90
2018-06-14T02:49:09.072Z,10.07
2018-06-14T02:50:14.525Z,9.37
2018-06-14T02:51:20.010Z,9.00
2018-06-14T02:52:25.434Z,9.77
2018-06-14T02:53:31.247Z,9.93
2018-06-14T02:54:36.700Z,10.17
2018-06-14T02:55:42.153Z,9.43
2018-06-14T02:56:47.549Z,9.87
2018-06-14T02:57:52.953Z,10.60
2018-06-14T02:58:58.373Z,10.57
2018-06-14T03:00:03.893Z,11.60
2018-06-14T03:01:09.312Z,9.83
2018-06-14T03:02:14.740Z,10.30
2018-06-14T03:03:20.155Z,10.10
2018-06-14T03:04:25.722Z,11.00
2018-06-14T03:05:31.188Z,10.60
2018-06-14T03:06:36.614Z,9.93
2018-06-14T03:07:42.034Z,10.87
2018-06-14T03:08:47.445Z,10.40
2018-06-14T03:09:52.874Z,10.60
2018-06-14T03:10:58.349Z,10.63
2018-06-14T03:12:03.948Z,10.27
2018-06-14T03:13:09.438Z,11.33
2018-06-14T03:14:14.923Z,10.20
2018-06-14T03:15:20.381Z,10.80
2018-06-14T03:16:25.796Z,10.67
2018-06-14T03:17:31.365Z,12.30
2018-06-14T03:18:36.878Z,11.50
2018-06-14T03:19:42.422Z,11.17
2018-06-14T03:20:47.958Z,11.13
2018-06-14T03:21:53.470Z,10.17
2018-06-14T03:22:59.517Z,10.97
2018-06-14T03:24:05.054Z,10.60
2018-06-14T03:25:10.638Z,12.53
2018-06-14T03:26:15.941Z,10.97
2018-06-14T03:27:21.281Z,11.60
2018-06-14T03:28:27.237Z,11.83
2018-06-14T03:29:32.685Z,11.80
2018-06-14T03:30:38.169Z,11.07
2018-06-14T03:31:43.789Z,12.17
2018-06-14T03:32:50.318Z,11.27
2018-06-14T03:33:55.773Z,10.33
2018-06-14T03:35:01.213Z,12.03
2018-06-14T03:36:06.676Z,11.00
2018-06-14T03:37:12.203Z,12.37
2018-06-14T03:38:17.826Z,11.57
2018-06-14T03:39:23.251Z,11.83
2018-06-14T03:40:29.060Z,11.43
2018-06-14T03:41:34.470Z,10.70
2018-06-14T03:42:46.822Z,13.37
2018-06-14T03:43:52.452Z,12.30
2018-06-14T03:44:57.970Z,11.87
2018-06-14T03:46:03.460Z,11.47
2018-06-14T03:47:09.279Z,11.43
2018-06-14T03:48:14.693Z,13.57
2018-06-14T03:49:19.865Z,12.37
2018-06-14T03:50:25.502Z,12.30
2018-06-14T03:51:30.953Z,12.80
2018-06-14T03:52:36.522Z,10.37
2018-06-14T03:53:41.945Z,12.53
2018-06-14T03:54:47.401Z,11.97
2018-06-14T03:55:52.858Z,11.47
2018-06-14T03:56:58.251Z,11.90
2018-06-14T03:58:03.745Z,10.23
2018-06-14T03:59:09.223Z,10.77
2018-06-14T04:00:14.630Z,12.00
2018-06-14T04:01:20.158Z,12.13
2018-06-14T04:02:25.280Z,11.43
2018-06-14T04:03:30.593Z,11.70
2018-06-14T04:04:35.996Z,11.57
2018-06-14T04:05:41.585Z,10.97
2018-06-14T04:06:47.446Z,11.10
2018-06-14T04:07:52.858Z,11.70
2018-06-14T04:08:58.342Z,11.70
2018-06-14T04:10:03.870Z,11.73
2018-06-14T04:11:09.282Z,11.30
2018-06-14T04:12:14.778Z,10.00
2018-06-14T04:13:20.182Z,11.47
2018-06-14T04:14:25.623Z,10.63
2018-06-14T04:15:31.078Z,10.00
2018-06-14T04:16:37.641Z,10.23
2018-06-14T04:17:43.109Z,10.00
2018-06-14T04:18:48.526Z,11.87
2018-06-14T04:19:54.033Z,9.80
2018-06-14T04:20:59.465Z,9.80
2018-06-14T04:22:04.929Z,9.40
2018-06-14T04:23:10.406Z,9.33
2018-06-14T04:24:15.686Z,9.57
2018-06-14T04:25:21.166Z,10.27
2018-06-14T04:26:26.969Z,9.17
2018-06-14T04:27:32.467Z,8.90
2018-06-14T04:28:37.912Z,8.90
2018-06-14T04:29:43.778Z,10.00
2018-06-14T04:30:49.206Z,10.40
2018-06-14T04:31:54.593Z,9.67
2018-06-14T04:33:00.161Z,9.40
2018-06-14T04:34:05.684Z,10.27
2018-06-14T04:35:11.102Z,10.10
2018-06-14T04:36:16.543Z,9.00
2018-06-14T04:37:21.984Z,9.23
2018-06-14T04:38:27.393Z,8.53
2018-06-14T04:39:32.818Z,9.07
2018-06-14T04:40:38.228Z,9.57
2018-06-14T04:41:43.673Z,10.77
2018-06-14T04:42:49.518Z,9.13
2018-06-14T04:43:54.953Z,9.20
2018-06-14T04:45:00.374Z,8.47
2018-06-14T04:46:06.290Z,8.47
2018-06-14T04:47:11.804Z,8.10
2018-06-14T04:48:17.345Z,8.90
2018-06-14T04:49:22.864Z,9.40
2018-06-14T04:50:28.301Z,9.10
2018-06-14T04:51:37.757Z,9.00
2018-06-14T04:52:43.174Z,9.10
2018-06-14T04:53:48.754Z,9.10
2018-06-14T04:54:54.201Z,8.90
2018-06-14T04:55:59.660Z,8.53
2018-06-14T04:57:05.685Z,9.17
2018-06-14T04:58:11.604Z,10.90
2018-06-14T04:59:17.016Z,8.90
2018-06-14T05:00:22.594Z,8.50
2018-06-14T05:01:28.080Z,8.07
2018-06-14T05:02:33.504Z,8.07
2018-06-14T05:03:39.108Z,9.87
2018-06-14T05:04:44.713Z,9.17
2018-06-14T05:05:50.249Z,8.43
2018-06-14T05:06:55.398Z,8.93
2018-06-14T05:08:00.721Z,9.80
2018-06-14T05:09:10.714Z,9.87
2018-06-14T05:10:16.782Z,8.37
2018-06-14T05:11:22.193Z,8.93
2018-06-14T05:12:27.635Z,9.50
2018-06-14T05:13:33.126Z,9.90
2018-06-14T05:14:38.635Z,8.63
2018-06-14T05:15:44.083Z,8.90
2018-06-14T05:16:49.576Z,9.23
2018-06-14T05:17:55.252Z,9.83
2018-06-14T05:19:00.702Z,10.40
2018-06-14T05:20:06.669Z,9.30
2018-06-14T05:21:12.086Z,9.90
2018-06-14T05:22:17.488Z,9.70
2018-06-14T05:23:22.920Z,9.93
2018-06-14T05:24:28.346Z,9.73
2018-06-14T05:25:33.876Z,9.93
2018-06-14T05:26:39.294Z,9.97
2018-06-14T05:27:44.707Z,10.03
2018-06-14T05:28:50.153Z,11.33
2018-06-14T05:29:55.606Z,9.57
2018-06-14T05:31:01.045Z,10.43
2018-06-14T05:32:06.525Z,9.60
2018-06-14T05:33:12.034Z,9.83
2018-06-14T05:34:17.474Z,9.97
2018-06-14T05:35:22.913Z,10.13
2018-06-14T05:36:28.478Z,10.33
2018-06-14T05:37:33.616Z,11.07
2018-06-14T05:38:39.065Z,10.10
2018-06-14T05:39:44.462Z,8.60
2018-06-14T05:40:49.882Z,9.27
2018-06-14T05:41:55.354Z,9.50
2018-06-14T05:43:00.802Z,9.43
2018-06-14T05:44:06.305Z,9.77
2018-06-14T05:45:11.718Z,9.43
2018-06-14T05:46:17.148Z,9.70
2018-06-14T05:47:22.637Z,9.70
2018-06-14T05:48:28.068Z,11.40
2018-06-14T05:49:33.505Z,9.53
2018-06-14T05:50:39.009Z,9.70
2018-06-14T05:51:44.465Z,10.13
2018-06-14T05:52:49.857Z,9.83
2018-06-14T05:53:55.288Z,9.80
2018-06-14T05:55:00.739Z,8.50
2018-06-14T05:56:05.836Z,9.80
2018-06-14T05:57:11.300Z,9.90
2018-06-14T05:58:16.762Z,10.00
2018-06-14T05:59:22.231Z,10.30
2018-06-14T06:00:27.724Z,10.60
2018-06-14T06:01:33.178Z,9.13
2018-06-14T06:02:38.446Z,9.10
2018-06-14T06:03:43.805Z,10.20
2018-06-14T06:04:49.203Z,9.37
2018-06-14T06:05:54.673Z,9.13
2018-06-14T06:07:00.085Z,8.70
2018-06-14T06:08:05.508Z,9.10
2018-06-14T06:09:12.416Z,9.33
2018-06-14T06:10:17.956Z,9.37
2018-06-14T06:11:23.374Z,8.13
2018-06-14T06:12:28.802Z,8.90
2018-06-14T06:13:34.294Z,8.77
2018-06-14T06:14:39.708Z,8.27
2018-06-14T06:15:45.226Z,9.13
2018-06-14T06:16:50.753Z,8.33
2018-06-14T06:17:56.182Z,8.60
2018-06-14T06:19:01.633Z,8.30
2018-06-14T06:20:16.930Z,9.07
2018-06-14T06:21:22.832Z,9.07
2018-06-14T06:22:28.271Z,8.60
2018-06-14T06:23:33.774Z,9.03
2018-06-14T06:24:39.247Z,8.73
2018-06-14T06:25:44.653Z,8.63
2018-06-14T06:26:50.333Z,9.33
2018-06-14T06:27:55.748Z,8.83
2018-06-14T06:29:01.143Z,7.73
2018-06-14T06:30:06.893Z,8.57
2018-06-14T06:31:12.314Z,9.03
2018-06-14T06:32:18.157Z,8.60
2018-06-14T06:33:23.728Z,8.47
2018-06-14T06:34:29.461Z,8.40
2018-06-14T06:35:35.149Z,8.83
2018-06-14T06:36:40.762Z,8.07
2018-06-14T06:37:46.380Z,8.47
2018-06-14T06:38:51.856Z,8.17
2018-06-14T06:39:58.306Z,7.77
2018-06-14T06:41:03.769Z,8.70
2018-06-14T06:42:09.285Z,6.93
2018-06-14T06:43:14.806Z,6.93
2018-06-14T06:44:20.204Z,7.70
2018-06-14T06:45:25.691Z,7.73
2018-06-14T06:46:31.125Z,8.07
2018-06-14T06:47:36.552Z,8.53
2018-06-14T06:48:42.410Z,7.10
2018-06-14T06:49:48.187Z,7.47
2018-06-14T06:50:53.372Z,7.50
2018-06-14T06:51:58.697Z,7.90
2018-06-14T06:53:05.688Z,8.37
2018-06-14T06:54:11.560Z,7.37
2018-06-14T06:55:16.997Z,7.33
2018-06-14T06:56:22.396Z,8.10
2018-06-14T06:57:28.508Z,6.90
2018-06-14T06:58:33.936Z,7.80
2018-06-14T06:59:39.477Z,7.37
2018-06-14T07:00:44.881Z,6.70
2018-06-14T07:01:50.381Z,7.07
2018-06-14T07:02:55.855Z,6.90
2018-06-14T07:04:01.258Z,7.07
2018-06-14T07:05:07.285Z,7.60
2018-06-14T07:06:12.903Z,7.07
2018-06-14T07:07:18.161Z,6.43
2018-06-14T07:08:23.568Z,6.90
2018-06-14T07:09:28.950Z,7.43
2018-06-14T07:10:34.597Z,6.30
2018-06-14T07:11:40.001Z,6.87
2018-06-14T07:12:45.413Z,6.63
2018-06-14T07:13:50.865Z,6.33
2018-06-14T07:14:56.365Z,7.47
2018-06-14T07:16:01.805Z,7.03
2018-06-14T07:17:07.973Z,7.10
2018-06-14T07:18:13.497Z,7.20
2018-06-14T07:19:18.924Z,6.97
2018-06-14T07:20:24.380Z,7.00
2018-06-14T07:21:30.234Z,7.50
2018-06-14T07:22:35.634Z,7.00
2018-06-14T07:23:41.046Z,6.97
2018-06-14T07:24:46.533Z,6.30
2018-06-14T07:25:52.299Z,7.17
2018-06-14T07:26:58.112Z,6.57
2018-06-14T07:28:03.507Z,7.83
2018-06-14T07:29:08.926Z,7.93
2018-06-14T07:30:14.418Z,7.30
2018-06-14T07:31:19.890Z,7.37
2018-06-14T07:32:25.321Z,7.70
2018-06-14T07:33:30.782Z,6.87
2018-06-14T07:34:36.202Z,7.30
2018-06-14T07:35:41.738Z,7.70
2018-06-14T07:36:47.178Z,9.47
2018-06-14T07:37:52.627Z,7.43
2018-06-14T07:38:58.092Z,7.30
2018-06-14T07:40:03.646Z,8.10
2018-06-14T07:41:09.065Z,8.07
2018-06-14T07:42:14.457Z,6.53
2018-06-14T07:43:19.925Z,7.03
2018-06-14T07:44:25.440Z,7.33
2018-06-14T07:45:30.841Z,6.93
2018-06-14T07:46:36.239Z,6.47
2018-06-14T07:47:41.639Z,7.67
2018-06-14T07:48:47.056Z,7.90
2018-06-14T07:49:52.590Z,8.20
2018-06-14T07:50:58.397Z,8.50
2018-06-14T07:52:03.813Z,8.00
2018-06-14T07:53:09.221Z,7.67
2018-06-14T07:54:14.669Z,8.20
2018-06-14T07:55:20.088Z,7.83
2018-06-14T07:56:25.566Z,7.13
2018-06-14T07:57:30.957Z,7.80
2018-06-14T07:58:36.694Z,8.80
2018-06-14T07:59:42.100Z,7.40
2018-06-14T08:00:47.522Z,8.37
2018-06-14T08:01:53.318Z,8.07
2018-06-14T08:02:58.749Z,8.60
2018-06-14T08:04:04.161Z,8.37
2018-06-14T08:05:09.618Z,8.00
2018-06-14T08:06:15.029Z,7.07
2018-06-14T08:07:20.609Z,7.57
2018-06-14T08:08:26.040Z,7.53
2018-06-14T08:09:31.526Z,7.83
2018-06-14T08:10:36.993Z,7.87
2018-06-14T08:11:42.695Z,7.37
2018-06-14T08:12:48.194Z,7.80
2018-06-14T08:13:53.620Z,6.70
2018-06-14T08:14:59.054Z,7.60
2018-06-14T08:16:04.506Z,7.63
2018-06-14T08:17:09.993Z,7.10
2018-06-14T08:18:15.618Z,7.10
2018-06-14T08:19:21.038Z,7.00
2018-06-14T08:20:26.737Z,6.00
2018-06-14T08:21:32.175Z,7.20
2018-06-14T08:22:37.625Z,6.10
2018-06-14T08:23:43.547Z,5.53
2018-06-14T08:24:48.973Z,6.73
2018-06-14T08:25:54.555Z,6.80
2018-06-14T08:26:59.977Z,7.30
2018-06-14T08:28:05.448Z,7.50
2018-06-14T08:29:11.113Z,6.03
2018-06-14T08:30:16.630Z,6.40
2018-06-14T08:31:22.070Z,6.53
2018-06-14T08:32:27.485Z,6.23
2018-06-14T08:33:33.100Z,6.23
2018-06-14T08:34:38.502Z,7.27
2018-06-14T08:35:43.898Z,6.47
2018-06-14T08:36:49.305Z,6.20
2018-06-14T08:37:54.761Z,6.40
2018-06-14T08:39:00.202Z,6.47
2018-06-14T08:40:05.741Z,6.60
2018-06-14T08:41:11.214Z,6.80
2018-06-14T08:42:16.661Z,6.83
2018-06-14T08:43:22.089Z,7.30
2018-06-14T08:44:27.710Z,6.37
2018-06-14T08:45:33.226Z,6.73
2018-06-14T08:46:38.613Z,6.40
2018-06-14T08:47:44.039Z,6.20
2018-06-14T08:48:49.456Z,7.03
2018-06-14T08:49:55.109Z,6.40
2018-06-14T08:51:00.559Z,7.27
2018-06-14T08:52:06.193Z,6.43
2018-06-14T08:53:11.604Z,7.23
2018-06-14T08:54:16.997Z,6.20
2018-06-14T08:55:22.443Z,7.13
2018-06-14T08:56:27.865Z,6.40
2018-06-14T08:57:33.470Z,5.53
2018-06-14T08:58:38.929Z,5.80
2018-06-14T08:59:44.316Z,5.83
2018-06-14T09:00:49.818Z,5.70
2018-06-14T09:01:55.289Z,6.40
2018-06-14T09:03:00.754Z,6.43
2018-06-14T09:04:06.272Z,6.83
2018-06-14T09:05:11.726Z,5.97
2018-06-14T09:06:17.181Z,6.30
2018-06-14T09:07:22.673Z,5.27
2018-06-14T09:08:28.361Z,5.50
2018-06-14T09:09:33.777Z,5.83
2018-06-14T09:10:39.217Z,5.37
2018-06-14T09:11:44.938Z,5.13
2018-06-14T09:12:50.503Z,5.60
2018-06-14T09:13:56.034Z,6.80
2018-06-14T09:15:01.475Z,5.37
2018-06-14T09:16:06.950Z,4.93
2018-06-14T09:17:12.359Z,5.67
2018-06-14T09:18:18.145Z,6.33
2018-06-14T09:19:23.717Z,6.20
2018-06-14T09:20:29.258Z,5.50
2018-06-14T09:21:34.695Z,5.83
2018-06-14T09:22:40.122Z,5.57
2018-06-14T09:23:45.568Z,6.50
2018-06-14T09:24:51.214Z,6.03
2018-06-14T09:25:56.618Z,5.73
2018-06-14T09:27:02.057Z,5.70
2018-06-14T09:28:07.498Z,6.27
2018-06-14T09:29:12.926Z,5.83
2018-06-14T09:30:18.728Z,6.43
2018-06-14T09:31:24.169Z,6.00
2018-06-14T09:32:29.565Z,5.50
2018-06-14T09:33:34.979Z,5.80
2018-06-14T09:34:40.409Z,7.00
2018-06-14T09:35:45.883Z,5.90
2018-06-14T09:36:51.342Z,5.77
2018-06-14T09:37:56.741Z,4.97
2018-06-14T09:39:02.409Z,5.40
2018-06-14T09:40:07.875Z,5.00
2018-06-14T09:41:13.438Z,4.90
2018-06-14T09:42:18.854Z,5.03
2018-06-14T09:43:24.341Z,4.73
2018-06-14T09:44:29.766Z,5.77
2018-06-14T09:45:35.183Z,5.40
2018-06-14T09:46:40.652Z,5.13
2018-06-14T09:47:46.163Z,5.27
2018-06-14T09:48:57.369Z,5.60
2018-06-14T09:50:02.765Z,6.90
2018-06-14T09:51:08.225Z,6.20
2018-06-14T09:52:13.755Z,5.50
2018-06-14T09:53:19.197Z,6.47
2018-06-14T09:54:24.629Z,5.93
2018-06-14T09:55:30.043Z,5.30
2018-06-14T09:56:35.659Z,7.40
2018-06-14T09:57:41.109Z,6.07
2018-06-14T09:58:46.517Z,5.70
2018-06-14T09:59:52.394Z,6.03
2018-06-14T10:00:57.787Z,5.27
2018-06-14T10:02:03.246Z,6.70
2018-06-14T10:03:08.759Z,5.50
2018-06-14T10:04:14.213Z,6.30
2018-06-14T10:05:19.649Z,6.90
2018-06-14T10:06:25.076Z,6.20
2018-06-14T10:07:30.492Z,6.07
2018-06-14T10:08:35.888Z,5.87
2018-06-14T10:09:41.275Z,6.80
2018-06-14T10:10:46.683Z,4.63
2018-06-14T10:11:52.273Z,5.60
2018-06-14T10:12:57.871Z,5.50
2018-06-14T10:14:03.266Z,5.37
2018-06-14T10:15:08.696Z,6.23
2018-06-14T10:16:14.143Z,5.40
2018-06-14T10:17:19.539Z,6.30
2018-06-14T10:18:25.701Z,6.20
2018-06-14T10:19:31.115Z,6.40
2018-06-14T10:20:36.720Z,5.57
2018-06-14T10:21:42.156Z,4.80
2018-06-14T10:22:47.562Z,5.83
2018-06-14T10:23:53.157Z,5.97
2018-06-14T10:24:58.558Z,4.90
2018-06-14T10:26:03.996Z,4.67
2018-06-14T10:27:09.393Z,5.87
2018-06-14T10:28:14.816Z,4.60
2018-06-14T10:29:20.315Z,4.20
2018-06-14T10:30:25.732Z,4.60
2018-06-14T10:31:31.269Z,5.10
2018-06-14T10:32:36.705Z,5.57
2018-06-14T10:33:42.137Z,4.33
2018-06-14T10:34:47.754Z,5.70
2018-06-14T10:35:53.166Z,5.23
2018-06-14T10:36:58.599Z,4.97
2018-06-14T10:38:04.110Z,5.03
2018-06-14T10:39:09.874Z,5.10
2018-06-14T10:40:15.350Z,5.00
2018-06-14T10:41:21.732Z,4.57
2018-06-14T10:42:27.147Z,5.80
2018-06-14T10:43:32.615Z,4.20
2018-06-14T10:44:37.971Z,4.83
2018-06-14T10:45:43.525Z,5.10
2018-06-14T10:46:48.977Z,5.20
2018-06-14T10:47:54.349Z,4.93
2018-06-14T10:48:59.762Z,5.13
2018-06-14T10:50:05.199Z,5.27
2018-06-14T10:51:10.654Z,5.20
2018-06-14T10:52:16.128Z,5.67
2018-06-14T10:53:21.528Z,5.20
2018-06-14T10:54:27.283Z,5.07
2018-06-14T10:55:32.683Z,5.80
2018-06-14T10:56:38.396Z,5.37
2018-06-14T10:57:43.826Z,5.63
2018-06-14T10:58:49.231Z,5.07
2018-06-14T10:59:54.657Z,4.10
2018-06-14T11:01:00.173Z,5.23
2018-06-14T11:02:05.723Z,4.50
2018-06-14T11:03:11.232Z,5.07
2018-06-14T11:04:16.620Z,4.70
2018-06-14T11:05:22.026Z,5.30
2018-06-14T11:06:27.436Z,4.00
2018-06-14T11:07:32.854Z,5.40
2018-06-14T11:08:38.273Z,4.83
2018-06-14T11:09:43.694Z,5.67
2018-06-14T11:10:49.305Z,5.47
2018-06-14T11:11:54.700Z,5.30
2018-06-14T11:13:00.106Z,6.10
2018-06-14T11:14:05.641Z,5.93
2018-06-14T11:15:11.116Z,6.10
2018-06-14T11:16:16.525Z,6.60
2018-06-14T11:17:21.941Z,6.03
2018-06-14T11:18:27.396Z,6.10
2018-06-14T11:19:32.774Z,7.30
2018-06-14T11:20:38.334Z,6.27
2018-06-14T11:21:43.732Z,5.80
2018-06-14T11:22:49.149Z,6.30
2018-06-14T11:23:54.545Z,6.37
2018-06-14T11:25:01.800Z,6.10
2018-06-14T11:26:07.459Z,5.97
2018-06-14T11:27:12.868Z,6.93
2018-06-14T11:28:18.269Z,6.20
2018-06-14T11:29:23.698Z,5.30
2018-06-14T11:30:29.105Z,5.60
2018-06-14T11:31:34.581Z,5.67
2018-06-14T11:32:40.027Z,6.63
2018-06-14T11:33:45.437Z,6.50
2018-06-14T11:34:51.068Z,6.90
2018-06-14T11:35:57.490Z,6.27
2018-06-14T11:37:02.957Z,6.20
2018-06-14T11:38:08.408Z,5.87
2018-06-14T11:39:13.843Z,5.53
2018-06-14T11:40:19.281Z,6.10
2018-06-14T11:41:24.703Z,5.60
2018-06-14T11:42:30.163Z,5.70
2018-06-14T11:43:35.650Z,6.00
2018-06-14T11:44:41.077Z,5.40
2018-06-14T11:45:46.483Z,6.10
2018-06-14T11:46:51.910Z,5.90
2018-06-14T11:47:57.344Z,4.90
2018-06-14T11:49:02.816Z,5.10
2018-06-14T11:50:08.273Z,5.80
2018-06-14T11:51:13.886Z,5.00
2018-06-14T11:52:19.300Z,6.37
2018-06-14T11:53:24.698Z,4.90
2018-06-14T11:54:30.345Z,5.90
2018-06-14T11:55:35.753Z,5.77
2018-06-14T11:56:41.217Z,5.80
2018-06-14T11:57:46.638Z,5.40
2018-06-14T11:58:52.038Z,6.10
2018-06-14T12:00:05.843Z,6.20
2018-06-14T12:01:11.303Z,5.33
2018-06-14T12:02:17.069Z,5.60
2018-06-14T12:03:22.507Z,5.97
2018-06-14T12:04:27.886Z,5.43
2018-06-14T12:05:33.291Z,5.57
2018-06-14T12:06:38.724Z,6.10
2018-06-14T12:07:44.097Z,5.40
2018-06-14T12:08:49.519Z,6.87
2018-06-14T12:09:54.938Z,6.40
2018-06-14T12:11:00.353Z,5.97
2018-06-14T12:12:06.131Z,5.87
2018-06-14T12:13:11.576Z,6.37
2018-06-14T12:14:16.966Z,5.97
2018-06-14T12:15:22.748Z,5.30
2018-06-14T12:16:28.213Z,5.80
2018-06-14T12:17:33.624Z,5.57
2018-06-14T12:18:39.177Z,5.73
2018-06-14T12:19:44.574Z,5.87
2018-06-14T12:20:50.409Z,5.37
2018-06-14T12:21:55.904Z,5.97
2018-06-14T12:23:01.301Z,5.30
2018-06-14T12:24:07.114Z,6.10
2018-06-14T12:25:12.525Z,5.30
2018-06-14T12:26:17.938Z,5.50
2018-06-14T12:27:23.337Z,6.30
2018-06-14T12:28:28.782Z,5.93
2018-06-14T12:29:34.238Z,5.80
2018-06-14T12:30:39.846Z,5.00
2018-06-14T12:31:45.276Z,5.57
2018-06-14T12:32:50.711Z,5.40
2018-06-14T12:33:56.552Z,6.10
2018-06-14T12:35:01.939Z,6.07
2018-06-14T12:36:07.358Z,5.63
2018-06-14T12:37:12.785Z,5.50
2018-06-14T12:38:18.206Z,5.40
2018-06-14T12:39:23.840Z,5.33
2018-06-14T12:40:29.393Z,6.10
2018-06-14T12:41:34.937Z,6.00
2018-06-14T12:42:40.376Z,4.90
2018-06-14T12:43:45.804Z,5.70
2018-06-14T12:44:51.229Z,4.90
2018-06-14T12:45:56.628Z,5.13
2018-06-14T12:47:02.184Z,5.07
2018-06-14T12:48:07.638Z,4.67
2018-06-14T12:49:13.067Z,4.60
2018-06-14T12:50:18.466Z,5.37
2018-06-14T12:51:23.887Z,5.20
2018-06-14T12:52:29.373Z,5.77
2018-06-14T12:53:34.822Z,5.10
2018-06-14T12:54:40.217Z,5.20
2018-06-14T12:55:45.691Z,4.73
2018-06-14T12:56:51.259Z,4.07
2018-06-14T12:57:56.759Z,5.00
2018-06-14T12:59:02.301Z,4.60
2018-06-14T13:00:07.742Z,5.33
2018-06-14T13:01:13.138Z,5.70
2018-06-14T13:02:18.537Z,4.60
2018-06-14T13:03:24.017Z,4.20
2018-06-14T13:04:29.551Z,5.03
2018-06-14T13:05:34.956Z,4.77
2018-06-14T13:06:40.655Z,5.10
2018-06-14T13:07:46.063Z,5.17
2018-06-14T13:08:51.530Z,4.40
2018-06-14T13:09:56.967Z,5.50
2018-06-14T13:11:02.456Z,5.10
2018-06-14T13:12:08.042Z,5.23
2018-06-14T13:13:13.462Z,5.93
2018-06-14T13:14:18.909Z,5.20
2018-06-14T13:15:24.301Z,5.87
2018-06-14T13:16:29.738Z,5.67
2018-06-14T13:17:35.297Z,5.87
2018-06-14T13:18:40.892Z,5.83
2018-06-14T13:19:46.446Z,5.20
2018-06-14T13:20:52.253Z,6.10
2018-06-14T13:21:57.657Z,7.33
2018-06-14T13:23:03.157Z,5.80
2018-06-14T13:24:08.593Z,6.83
2018-06-14T13:25:14.258Z,6.17
2018-06-14T13:26:19.661Z,6.17
2018-06-14T13:27:25.168Z,6.47
2018-06-14T13:28:30.608Z,5.90
2018-06-14T13:29:36.147Z,6.10
2018-06-14T13:30:41.769Z,5.73
2018-06-14T13:31:47.180Z,6.00
2018-06-14T13:32:53.098Z,6.40
2018-06-14T13:33:58.529Z,6.63
2018-06-14T13:35:04.021Z,6.00
2018-06-14T13:36:09.837Z,6.30
2018-06-14T13:37:15.247Z,5.83
2018-06-14T13:38:20.845Z,5.60
2018-06-14T13:39:26.277Z,5.00
2018-06-14T13:40:32.098Z,5.53
2018-06-14T13:41:37.562Z,5.83
2018-06-14T13:42:43.026Z,5.30
2018-06-14T13:43:48.431Z,5.60
2018-06-14T13:44:53.835Z,5.47
2018-06-14T13:45:59.423Z,6.00
2018-06-14T13:47:04.923Z,6.33
2018-06-14T13:48:10.429Z,5.90
2018-06-14T13:49:15.941Z,6.40
2018-06-14T13:50:21.382Z,6.43
2018-06-14T13:51:26.830Z,6.47
2018-06-14T13:52:32.273Z,6.77
2018-06-14T13:53:37.699Z,6.70
2018-06-14T13:54:43.164Z,6.53
2018-06-14T13:55:48.649Z,6.60
2018-06-14T13:56:54.311Z,7.30
2018-06-14T13:57:59.686Z,6.80
2018-06-14T13:59:05.302Z,6.80
2018-06-14T14:00:10.789Z,7.00
2018-06-14T14:01:16.348Z,6.57
2018-06-14T14:02:22.070Z,6.90
2018-06-14T14:03:27.685Z,7.10
2018-06-14T14:04:32.841Z,7.07
2018-06-14T14:05:38.221Z,6.90
2018-06-14T14:06:43.766Z,7.43
2018-06-14T14:07:49.584Z,7.37
2018-06-14T14:08:55.019Z,7.73
2018-06-14T14:10:00.676Z,7.70
2018-06-14T14:11:06.120Z,8.00
2018-06-14T14:12:11.630Z,6.90
2018-06-14T14:13:17.289Z,7.63
2018-06-14T14:14:22.730Z,7.27
2018-06-14T14:15:28.161Z,7.37
2018-06-14T14:16:33.590Z,7.40
2018-06-14T14:17:39.077Z,7.73
2018-06-14T14:18:44.522Z,8.03
2018-06-14T14:19:50.040Z,8.43
2018-06-14T14:20:55.670Z,8.90
2018-06-14T14:22:01.151Z,7.67
2018-06-14T14:23:06.677Z,9.77
2018-06-14T14:24:12.102Z,8.40
2018-06-14T14:25:17.547Z,7.60
2018-06-14T14:26:23.029Z,8.33
2018-06-14T14:27:28.441Z,8.47
2018-06-14T14:28:33.862Z,8.80